Terminal Aerodrome Forecast
Issued by NWS

Home | Current Version | Previous Version | Text Only | Print | Product List | Glossary On
Versions: 1 2 3 4 5 6 7 8 9 10 11 12 13 14
000
FTAK31 PAJN 272300
TAFAGY
TAF
PAGY 272325Z 2800/2824 21015KT P6SM VCSH SCT050 OVC070
      TEMPO 2800/2804 21015G25KT OVC050
     FM280400 VRB05KT P6SM BKN100
     FM281200 04015KT P6SM VCSH OVC050
     FM282200 VRB05KT P6SM -RA OVC040
      AMD LTD TO CLD VIS AND WIND=

USA.gov is the U.S. government's official web portal to all federal, state and local government web resources and services.